createdAt,value
2022-11-29T00:05:05.258Z,19
2022-11-29T00:10:21.586Z,20
2022-11-29T00:15:38.627Z,21
2022-11-29T00:20:55.165Z,18
2022-11-29T00:26:11.708Z,15
2022-11-29T00:31:28.161Z,16
2022-11-29T00:36:44.647Z,17
2022-11-29T00:42:01.924Z,16
2022-11-29T00:47:18.404Z,17
2022-11-29T00:52:34.886Z,15
2022-11-29T00:57:51.333Z,14
2022-11-29T01:03:07.813Z,15
2022-11-29T01:08:24.325Z,15
2022-11-29T01:13:40.824Z,15
2022-11-29T01:18:57.295Z,15
2022-11-29T01:24:13.775Z,16
2022-11-29T01:29:30.237Z,14
2022-11-29T01:34:46.888Z,16
2022-11-29T01:40:03.193Z,13
2022-11-29T01:45:19.655Z,14
2022-11-29T01:50:36.116Z,13
2022-11-29T01:55:52.612Z,14
2022-11-29T02:01:09.074Z,14
2022-11-29T02:06:30.484Z,13
2022-11-29T02:11:47.032Z,13
2022-11-29T02:17:03.558Z,15
2022-11-29T02:22:25.002Z,12
2022-11-29T02:27:41.508Z,13
2022-11-29T02:32:58.064Z,12
2022-11-29T02:38:14.517Z,12
2022-11-29T02:43:31.024Z,13
2022-11-29T02:48:47.523Z,10
2022-11-29T02:54:03.975Z,9
2022-11-29T02:59:20.491Z,12
2022-11-29T03:04:36.998Z,13
2022-11-29T03:09:53.517Z,13
2022-11-29T03:15:10.004Z,11
2022-11-29T03:20:26.440Z,9
2022-11-29T03:25:48.746Z,10
2022-11-29T03:31:05.322Z,11
2022-11-29T03:36:21.688Z,10
2022-11-29T03:41:38.171Z,11
2022-11-29T03:46:54.659Z,10
2022-11-29T03:52:11.144Z,10
2022-11-29T03:57:27.620Z,12
2022-11-29T04:02:44.170Z,10
2022-11-29T04:08:01.977Z,11
2022-11-29T04:13:18.369Z,13
2022-11-29T04:18:34.854Z,13
2022-11-29T04:23:51.354Z,14
2022-11-29T04:29:07.809Z,12
2022-11-29T04:34:24.285Z,17
2022-11-29T04:39:40.763Z,14
2022-11-29T04:44:57.238Z,14
2022-11-29T04:50:13.817Z,17
2022-11-29T04:55:31.276Z,14
2022-11-29T05:00:46.794Z,17
2022-11-29T05:06:03.246Z,18
2022-11-29T05:11:25.027Z,18
2022-11-29T05:16:36.796Z,17
2022-11-29T05:21:53.291Z,16
2022-11-29T05:27:09.908Z,18
2022-11-29T05:32:26.462Z,18
2022-11-29T05:37:43.569Z,24
2022-11-29T05:43:00.009Z,22
2022-11-29T05:48:16.537Z,26
2022-11-29T05:53:32.986Z,21
2022-11-29T05:58:49.501Z,21
2022-11-29T06:04:10.336Z,21
2022-11-29T06:09:22.547Z,22
2022-11-29T06:14:39.080Z,22
2022-11-29T06:19:55.506Z,20
2022-11-29T06:25:12.062Z,23
2022-11-29T06:30:28.305Z,25
2022-11-29T06:35:44.802Z,24
2022-11-29T06:41:02.557Z,20
2022-11-29T06:46:18.341Z,20
2022-11-29T06:51:34.796Z,18
2022-11-29T06:56:51.334Z,18
2022-11-29T07:02:07.884Z,17
2022-11-29T07:07:24.366Z,18
2022-11-29T07:12:40.843Z,18
2022-11-29T07:17:57.308Z,18
2022-11-29T07:23:13.756Z,19
2022-11-29T07:28:30.257Z,17
2022-11-29T07:33:47.336Z,17
2022-11-29T07:39:03.855Z,16
2022-11-29T07:44:20.341Z,17
2022-11-29T07:49:36.811Z,13
2022-11-29T07:54:53.303Z,15
2022-11-29T08:00:11.320Z,14
2022-11-29T08:05:27.795Z,14
2022-11-29T08:10:44.315Z,14
2022-11-29T08:16:01.884Z,17
2022-11-29T08:21:18.331Z,16
2022-11-29T08:26:34.833Z,17
2022-11-29T08:31:51.388Z,16
2022-11-29T08:37:07.760Z,22
2022-11-29T08:42:24.289Z,16
2022-11-29T08:47:40.806Z,20
2022-11-29T08:53:03.803Z,21
2022-11-29T08:58:19.127Z,17
2022-11-29T09:03:35.637Z,18
2022-11-29T09:19:30.423Z,18
2022-11-29T09:30:39.172Z,19
2022-11-29T09:35:25.387Z,14
2022-11-29T09:40:41.861Z,18
2022-11-29T09:45:58.400Z,16
2022-11-29T09:51:14.883Z,14
2022-11-29T09:56:31.357Z,17
2022-11-29T10:01:47.816Z,17
2022-11-29T10:07:04.304Z,15
2022-11-29T10:12:20.784Z,17
2022-11-29T10:17:37.312Z,17
2022-11-29T10:22:53.816Z,16
2022-11-29T10:28:10.261Z,18
2022-11-29T10:33:26.715Z,18
2022-11-29T10:38:43.289Z,16
2022-11-29T10:43:59.893Z,20
2022-11-29T10:49:16.893Z,21
2022-11-29T10:54:33.300Z,17
2022-11-29T10:59:49.860Z,17
2022-11-29T11:05:06.429Z,17
2022-11-29T11:10:22.917Z,17
2022-11-29T11:15:39.430Z,18
2022-11-29T11:20:55.903Z,20
2022-11-29T11:26:12.378Z,19
2022-11-29T11:31:28.879Z,16
2022-11-29T11:36:45.554Z,22
2022-11-29T11:42:03.403Z,21
2022-11-29T11:47:20.145Z,20
2022-11-29T11:52:40.236Z,21
2022-11-29T11:57:53.129Z,22
2022-11-29T12:03:09.721Z,19
2022-11-29T12:08:26.113Z,22
2022-11-29T12:13:42.263Z,23
2022-11-29T12:18:58.784Z,25
2022-11-29T12:24:15.292Z,25
2022-11-29T12:29:31.822Z,26
2022-11-29T12:34:48.755Z,25
2022-11-29T12:40:04.793Z,23
2022-11-29T12:45:21.243Z,25
2022-11-29T12:50:37.663Z,25
2022-11-29T12:55:54.154Z,25
2022-11-29T13:01:10.743Z,23
2022-11-29T13:06:27.195Z,22
2022-11-29T13:11:43.433Z,23
2022-11-29T13:16:59.926Z,22
2022-11-29T13:22:16.448Z,21
2022-11-29T13:27:32.910Z,21
2022-11-29T13:32:49.430Z,23
2022-11-29T13:38:05.846Z,20
2022-11-29T13:43:22.382Z,21
2022-11-29T13:48:38.900Z,20
2022-11-29T13:53:55.386Z,22
2022-11-29T13:59:11.840Z,21
2022-11-29T14:04:28.343Z,18
2022-11-29T14:09:44.853Z,22
2022-11-29T14:15:01.853Z,20
2022-11-29T14:20:18.446Z,21
2022-11-29T14:25:51.127Z,22
2022-11-29T14:30:52.079Z,20
2022-11-29T14:36:08.512Z,21
2022-11-29T14:41:25.057Z,22
2022-11-29T14:46:42.127Z,23
2022-11-29T14:51:59.002Z,22
2022-11-29T14:57:15.551Z,23
2022-11-29T15:02:32.302Z,25
2022-11-29T15:07:48.767Z,24
2022-11-29T15:13:05.191Z,23
2022-11-29T15:18:21.697Z,26
2022-11-29T15:23:38.150Z,24
2022-11-29T15:28:54.710Z,25
2022-11-29T15:34:17.054Z,29
2022-11-29T15:39:27.828Z,31
2022-11-29T15:44:44.978Z,32
2022-11-29T15:50:01.927Z,31
2022-11-29T15:55:23.398Z,28
2022-11-29T16:00:40.053Z,27
2022-11-29T16:05:57.054Z,32
2022-11-29T16:11:13.605Z,34
2022-11-29T16:16:30.258Z,36
2022-11-29T16:21:46.716Z,35
2022-11-29T16:27:03.368Z,40
2022-11-29T16:32:20.453Z,40
2022-11-29T16:37:37.052Z,41
2022-11-29T16:42:53.585Z,40
2022-11-29T16:48:10.118Z,39
2022-11-29T16:53:26.706Z,37
2022-11-29T16:58:43.250Z,35
2022-11-29T17:03:59.786Z,40
2022-11-29T17:09:16.022Z,42
2022-11-29T17:14:33.166Z,46
2022-11-29T17:19:49.787Z,48
2022-11-29T17:25:06.376Z,49
2022-11-29T17:30:22.910Z,50
2022-11-29T17:35:40.348Z,47
2022-11-29T17:40:56.932Z,44
2022-11-29T17:46:13.974Z,46
2022-11-29T17:51:51.825Z,44
2022-11-29T17:56:48.019Z,48
2022-11-29T18:02:04.741Z,49
2022-11-29T18:07:21.338Z,50
2022-11-29T18:12:37.768Z,51
2022-11-29T18:17:54.336Z,50
2022-11-29T18:23:10.644Z,55
2022-11-29T18:28:28.119Z,59
2022-11-29T18:33:44.716Z,59
2022-11-29T18:39:06.437Z,66
2022-11-29T18:44:22.759Z,66
2022-11-29T18:49:39.904Z,65
2022-11-29T18:54:56.855Z,62
2022-11-29T19:00:13.340Z,62
2022-11-29T19:05:29.695Z,60
2022-11-29T19:10:46.620Z,62
2022-11-29T19:16:03.477Z,59
2022-11-29T19:21:20.602Z,57
2022-11-29T19:26:37.244Z,53
2022-11-29T19:31:54.413Z,56
2022-11-29T19:37:10.912Z,53
2022-11-29T19:42:27.465Z,52
2022-11-29T19:47:44.116Z,54
2022-11-29T19:53:01.844Z,56
2022-11-29T19:58:18.445Z,50
2022-11-29T20:03:35.217Z,56
2022-11-29T20:08:51.787Z,53
2022-11-29T20:14:08.396Z,56
2022-11-29T20:19:24.890Z,59
2022-11-29T20:24:45.343Z,61
2022-11-29T20:29:58.112Z,60
2022-11-29T20:35:15.666Z,60
2022-11-29T20:40:31.950Z,55
2022-11-29T20:45:48.560Z,54
2022-11-29T20:51:04.880Z,52
2022-11-29T20:56:22.080Z,54
2022-11-29T21:01:38.747Z,55
2022-11-29T21:06:55.767Z,56
2022-11-29T21:12:12.730Z,57
2022-11-29T21:17:33.453Z,55
2022-11-29T21:22:46.430Z,49
2022-11-29T21:28:03.876Z,50
2022-11-29T21:33:20.178Z,49
2022-11-29T21:38:36.731Z,41
2022-11-29T21:44:06.830Z,43
2022-11-29T21:49:10.028Z,42
2022-11-29T21:54:26.558Z,45
2022-11-29T21:59:43.111Z,43
2022-11-29T22:04:59.416Z,45
2022-11-29T22:10:16.196Z,44
2022-11-29T22:15:33.283Z,43
2022-11-29T22:20:50.003Z,44
2022-11-29T22:26:06.567Z,41
2022-11-29T22:31:23.201Z,41
2022-11-29T22:36:39.606Z,41
2022-11-29T22:41:56.771Z,41
2022-11-29T22:47:13.322Z,44
2022-11-29T22:52:29.860Z,45
2022-11-29T22:57:46.915Z,43
2022-11-29T23:03:03.479Z,41
2022-11-29T23:08:20.010Z,41
2022-11-29T23:13:37.092Z,43
2022-11-29T23:18:53.790Z,41
2022-11-29T23:24:11.495Z,41
2022-11-29T23:29:28.690Z,38
2022-11-29T23:34:45.289Z,38
2022-11-29T23:40:01.475Z,40
2022-11-29T23:45:17.973Z,37
2022-11-29T23:50:35.092Z,36
2022-11-29T23:55:51.576Z,34
